The Woodlands, Texas
Current Conditions -  °F | °C
As of 11:53 PM on Wednesday 22 Oct 2014 (Local Time) from KDWH Reporting Station
Clear Clear  
Wind Chill: 67°   Ceiling: Unl
Heat Index: 67°   Visibility: 10mi
Dew Point: 58°   Wind: 6mph
Humidity: 73%   Direction: 70°ENE
Pressure: 30.08"   Gusts: NA
Location:  30.16°N, 95.45°W
Report Text: KDWH 230453Z AUTO 07005KT 10SM CLR 19/14 A3008 RMK AO2 SLP184 T01940144
Loading
Personal Weather Stations






























Interactive Weather Map
Tropical Storm Tracking
New forecast layout! Learn more

10-Day Weather Forecast

Advertisements
Track Severe Weather on mobile